Time;durP1;ratioP1;P1;durP2;ratioP2;P2;SDS_P1;SDS_P2;PMS_P1;PMS_P2;Temp;Humidity;BMP_temperature;BMP_pressure;BME280_temperature;BME280_humidity;BME280_pressure;Samples;Min_cycle;Max_cycle;Signal;HPM_P1;HPM_P2
2022/03/08 00:01:03;;;;;;;;;;;;;;;;;;5013210;28;20351;-60
2022/03/08 00:03:29;;;;;;;;;;;;;;;;;;5013026;28;19964;-62
2022/03/08 00:05:56;;;;;;;;;;;;;;;;;;5013150;28;19952;-59
2022/03/08 00:08:22;;;;;;;;;;;;;;;;;;5012354;28;19913;-63
2022/03/08 00:10:49;;;;;;;;;;;;;;;;;;5012995;28;19909;-60
2022/03/08 00:13:15;;;;;;;;;;;;;;;;;;4995239;28;19913;-63
2022/03/08 00:15:42;;;;;;;;;;;;;;;;;;5013015;28;19920;-62
2022/03/08 00:18:08;;;;;;;;;;;;;;;;;;5013269;28;19968;-63
2022/03/08 00:20:35;;;;;;;;;;;;;;;;;;5012881;28;20051;-64
2022/03/08 00:23:01;;;;;;;;;;;;;;;;;;5013253;28;19921;-63
2022/03/08 00:25:28;;;;;;;;;;;;;;;;;;5013126;28;19952;-62
2022/03/08 00:27:54;;;;;;;;;;;;;;;;;;5012562;28;19928;-62
2022/03/08 00:30:21;;;;;;;;;;;;;;;;;;5009220;28;20026;-65
2022/03/08 00:32:47;;;;;;;;;;;;;;;;;;5011950;28;19961;-61
2022/03/08 00:35:14;;;;;;;;;;;;;;;;;;5010763;28;20287;-57
2022/03/08 00:37:40;;;;;;;;;;;;;;;;;;5012488;28;19992;-62
2022/03/08 00:40:07;;;;;;;;;;;;;;;;;;5012355;28;20431;-62
2022/03/08 00:42:33;;;;;;;;;;;;;;;;;;5012678;28;19909;-61
2022/03/08 00:45:00;;;;;;;;;;;;;;;;;;4994862;28;19913;-63
2022/03/08 00:47:26;;;;;;;;;;;;;;;;;;5013114;28;19909;-63
2022/03/08 00:49:52;;;;;;;;;;;;;;;;;;5012993;28;20387;-62
2022/03/08 00:52:19;;;;;;;;;;;;;;;;;;5012601;28;20368;-57
2022/03/08 00:54:45;;;;;;;;;;;;;;;;;;5012843;28;20228;-64
2022/03/08 00:57:12;;;;;;;;;;;;;;;;;;5012994;28;19917;-63
2022/03/08 00:59:38;;;;;;;;;;;;;;;;;;5013083;28;19963;-63
2022/03/08 01:02:05;;;;;;;;;;;;;;;;;;5012464;28;19989;-63
2022/03/08 01:04:31;;;;;;;;;;;;;;;;;;5012475;28;19909;-62
2022/03/08 01:06:58;;;;;;;;;;;;;;;;;;5012611;28;20344;-55
2022/03/08 01:09:24;;;;;;;;;;;;;;;;;;5012540;28;19925;-65
2022/03/08 01:11:51;;;;;;;;;;;;;;;;;;5012186;28;20379;-64
2022/03/08 01:14:17;;;;;;;;;;;;;;;;;;5012327;28;19918;-64
2022/03/08 01:16:44;;;;;;;;;;;;;;;;;;5012148;28;19988;-62
2022/03/08 01:19:10;;;;;;;;;;;;;;;;;;5012304;28;19910;-64
2022/03/08 01:21:37;;;;;;;;;;;;;;;;;;5012735;28;19909;-59
2022/03/08 01:24:03;;;;;;;;;;;;;;;;;;4994331;28;19912;-64
2022/03/08 01:26:30;;;;;;;;;;;;;;;;;;5012815;28;19914;-65
2022/03/08 01:28:56;;;;;;;;;;;;;;;;;;4995120;28;20372;-64
2022/03/08 01:31:22;;;;;;;;;;;;;;;;;;5013639;28;19916;-64
2022/03/08 01:33:54;;;;;;;;;;;;;;;;;;5016563;28;19909;-59
2022/03/08 01:36:21;;;;;;;;;;;;;;;;;;5016008;28;19960;-65
2022/03/08 01:38:47;;;;;;;;;;;;;;;;;;5016730;28;19909;-62
2022/03/08 01:41:14;;;;;;;;;;;;;;;;;;5016164;28;19964;-62
2022/03/08 01:43:40;;;;;;;;;;;;;;;;;;5016652;28;19917;-62
2022/03/08 01:46:06;;;;;;;;;;;;;;;;;;4997539;28;20026;-63
2022/03/08 01:48:34;;;;;;;;;;;;;;;;;;5015981;28;19914;-64
2022/03/08 01:51:00;;;;;;;;;;;;;;;;;;5015763;28;20426;-63
2022/03/08 01:53:26;;;;;;;;;;;;;;;;;;5016108;28;20371;-62
2022/03/08 01:55:53;;;;;;;;;;;;;;;;;;5015918;28;20067;-62
2022/03/08 01:58:20;;;;;;;;;;;;;;;;;;5015613;28;20329;-61
2022/03/08 02:00:46;;;;;;;;;;;;;;;;;;5015842;28;20355;-64
2022/03/08 02:03:13;;;;;;;;;;;;;;;;;;5016277;28;19909;-64
2022/03/08 02:05:39;;;;;;;;;;;;;;;;;;4998663;28;19909;-63
2022/03/08 02:08:06;;;;;;;;;;;;;;;;;;5016154;28;19990;-61
2022/03/08 02:10:32;;;;;;;;;;;;;;;;;;5015912;28;19916;-60
2022/03/08 02:12:58;;;;;;;;;;;;;;;;;;5015474;28;19910;-60
2022/03/08 02:15:25;;;;;;;;;;;;;;;;;;5015047;28;19996;-62
2022/03/08 02:17:51;;;;;;;;;;;;;;;;;;5015680;28;20367;-63
2022/03/08 02:20:18;;;;;;;;;;;;;;;;;;5015429;28;19949;-58
2022/03/08 02:22:44;;;;;;;;;;;;;;;;;;5015327;28;19909;-57
2022/03/08 02:25:11;;;;;;;;;;;;;;;;;;5015390;28;20007;-63
2022/03/08 02:27:37;;;;;;;;;;;;;;;;;;4997987;28;19910;-65
2022/03/08 02:30:04;;;;;;;;;;;;;;;;;;5014902;28;19914;-52
2022/03/08 02:32:30;;;;;;;;;;;;;;;;;;5014970;28;19917;-64
2022/03/08 02:34:57;;;;;;;;;;;;;;;;;;5015574;28;19916;-65
2022/03/08 02:37:23;;;;;;;;;;;;;;;;;;5014669;28;19987;-63
2022/03/08 02:39:51;;;;;;;;;;;;;;;;;;5015285;28;19916;-62
2022/03/08 02:42:18;;;;;;;;;;;;;;;;;;5014062;28;19922;-63
2022/03/08 02:44:44;;;;;;;;;;;;;;;;;;5014944;28;20000;-64
2022/03/08 02:47:10;;;;;;;;;;;;;;;;;;5014916;28;19921;-63
2022/03/08 02:49:37;;;;;;;;;;;;;;;;;;5015296;28;19917;-62
2022/03/08 02:52:03;;;;;;;;;;;;;;;;;;5014863;28;20315;-57
2022/03/08 02:54:30;;;;;;;;;;;;;;;;;;5015240;28;19909;-59
2022/03/08 02:56:56;;;;;;;;;;;;;;;;;;5014859;28;20394;-60
2022/03/08 02:59:23;;;;;;;;;;;;;;;;;;5014816;28;19917;-58
2022/03/08 03:01:49;;;;;;;;;;;;;;;;;;5014690;28;19917;-60
2022/03/08 03:04:16;;;;;;;;;;;;;;;;;;4996487;28;19916;-63
2022/03/08 03:06:42;;;;;;;;;;;;;;;;;;5013963;28;19910;-62
2022/03/08 03:09:09;;;;;;;;;;;;;;;;;;5014427;28;20002;-57
2022/03/08 03:11:36;;;;;;;;;;;;;;;;;;5014178;28;20013;-61
2022/03/08 03:14:02;;;;;;;;;;;;;;;;;;5014145;28;20275;-62
2022/03/08 03:16:29;;;;;;;;;;;;;;;;;;5014001;28;19910;-55
2022/03/08 03:18:55;;;;;;;;;;;;;;;;;;5013867;28;19910;-59
2022/03/08 03:21:22;;;;;;;;;;;;;;;;;;5014095;28;20260;-61
2022/03/08 03:23:48;;;;;;;;;;;;;;;;;;5013874;28;19913;-57
2022/03/08 03:26:15;;;;;;;;;;;;;;;;;;5013694;28;19909;-56
2022/03/08 03:28:41;;;;;;;;;;;;;;;;;;5013712;28;19972;-58
2022/03/08 03:31:08;;;;;;;;;;;;;;;;;;5007858;28;19913;-64
2022/03/08 03:33:34;;;;;;;;;;;;;;;;;;5013699;28;19921;-60
2022/03/08 03:36:01;;;;;;;;;;;;;;;;;;5012349;28;19913;-57
2022/03/08 03:38:27;;;;;;;;;;;;;;;;;;5014002;28;19922;-62
2022/03/08 03:40:54;;;;;;;;;;;;;;;;;;5014097;28;19917;-61
2022/03/08 03:43:20;;;;;;;;;;;;;;;;;;5013423;28;19914;-64
2022/03/08 03:45:46;;;;;;;;;;;;;;;;;;5013474;28;20004;-62
2022/03/08 03:48:13;;;;;;;;;;;;;;;;;;5013459;28;19924;-57
2022/03/08 03:50:40;;;;;;;;;;;;;;;;;;5013214;28;19909;-63
2022/03/08 03:53:06;;;;;;;;;;;;;;;;;;5013062;28;19910;-58
2022/03/08 03:55:33;;;;;;;;;;;;;;;;;;5012077;28;19910;-64
2022/03/08 03:57:59;;;;;;;;;;;;;;;;;;5013429;28;19944;-56
2022/03/08 04:00:27;;;;;;;;;;;;;;;;;;5013236;28;19909;-62
2022/03/08 04:02:53;;;;;;;;;;;;;;;;;;5013595;28;19917;-57
2022/03/08 04:05:20;;;;;;;;;;;;;;;;;;5013362;28;19909;-63
2022/03/08 04:07:46;;;;;;;;;;;;;;;;;;5013401;28;19992;-58
2022/03/08 04:10:13;;;;;;;;;;;;;;;;;;5013232;28;19914;-62
2022/03/08 04:12:39;;;;;;;;;;;;;;;;;;5013017;28;19996;-63
2022/03/08 04:15:05;;;;;;;;;;;;;;;;;;5013690;28;19909;-51
2022/03/08 04:17:32;;;;;;;;;;;;;;;;;;5013424;28;20016;-56
2022/03/08 04:19:59;;;;;;;;;;;;;;;;;;5012678;28;20336;-54
2022/03/08 04:22:25;;;;;;;;;;;;;;;;;;4995106;28;20305;-59
2022/03/08 04:24:52;;;;;;;;;;;;;;;;;;5013278;28;19909;-61
2022/03/08 04:27:18;;;;;;;;;;;;;;;;;;4995613;28;20016;-60
2022/03/08 04:29:44;;;;;;;;;;;;;;;;;;5012768;28;19936;-55
2022/03/08 04:32:11;;;;;;;;;;;;;;;;;;5012669;28;19936;-57
2022/03/08 04:34:37;;;;;;;;;;;;;;;;;;5012657;28;19929;-62
2022/03/08 04:37:04;;;;;;;;;;;;;;;;;;5012214;28;19929;-60
2022/03/08 04:39:30;;;;;;;;;;;;;;;;;;5012195;28;19921;-61
2022/03/08 04:41:57;;;;;;;;;;;;;;;;;;5012791;28;20360;-59
2022/03/08 04:44:23;;;;;;;;;;;;;;;;;;5011927;28;20256;-62
2022/03/08 04:46:50;;;;;;;;;;;;;;;;;;5012127;28;20336;-62
2022/03/08 04:49:16;;;;;;;;;;;;;;;;;;5012325;28;19917;-54
2022/03/08 04:51:43;;;;;;;;;;;;;;;;;;5012318;28;20245;-60
2022/03/08 04:54:09;;;;;;;;;;;;;;;;;;5011881;28;19914;-55
2022/03/08 04:56:36;;;;;;;;;;;;;;;;;;5012635;28;19952;-57
2022/03/08 04:59:02;;;;;;;;;;;;;;;;;;5012548;28;20338;-60
2022/03/08 05:01:29;;;;;;;;;;;;;;;;;;5012231;28;20290;-58
2022/03/08 05:03:55;;;;;;;;;;;;;;;;;;4994677;28;19941;-57
2022/03/08 05:06:22;;;;;;;;;;;;;;;;;;5011275;28;19909;-61
2022/03/08 05:08:48;;;;;;;;;;;;;;;;;;5012446;28;19917;-63
2022/03/08 05:11:14;;;;;;;;;;;;;;;;;;5012489;28;19948;-58
2022/03/08 05:13:41;;;;;;;;;;;;;;;;;;5012409;28;19932;-60
2022/03/08 05:16:07;;;;;;;;;;;;;;;;;;5012177;28;20019;-57
2022/03/08 05:18:34;;;;;;;;;;;;;;;;;;5011974;28;20375;-62
2022/03/08 05:21:00;;;;;;;;;;;;;;;;;;5012410;28;19936;-59
2022/03/08 05:23:27;;;;;;;;;;;;;;;;;;5012455;28;19975;-58
2022/03/08 05:25:53;;;;;;;;;;;;;;;;;;5012625;28;19909;-57
2022/03/08 05:28:20;;;;;;;;;;;;;;;;;;5012150;28;19924;-67
2022/03/08 05:30:46;;;;;;;;;;;;;;;;;;4995168;28;20364;-65
2022/03/08 05:33:13;;;;;;;;;;;;;;;;;;5012913;28;19933;-64
2022/03/08 05:35:39;;;;;;;;;;;;;;;;;;5012854;28;19983;-66
2022/03/08 05:38:06;;;;;;;;;;;;;;;;;;5012438;28;19921;-67
2022/03/08 05:40:33;;;;;;;;;;;;;;;;;;5012891;28;19910;-65
2022/03/08 05:43:01;;;;;;;;;;;;;;;;;;5013088;28;19955;-65
2022/03/08 05:45:28;;;;;;;;;;;;;;;;;;5012675;28;19910;-66
2022/03/08 05:47:55;;;;;;;;;;;;;;;;;;5012633;28;19909;-63
2022/03/08 05:50:21;;;;;;;;;;;;;;;;;;5012412;28;19956;-66
2022/03/08 05:52:48;;;;;;;;;;;;;;;;;;5013117;28;19956;-65
2022/03/08 05:55:14;;;;;;;;;;;;;;;;;;5013022;28;19909;-66
2022/03/08 05:57:41;;;;;;;;;;;;;;;;;;5012338;28;19913;-57
2022/03/08 06:00:07;;;;;;;;;;;;;;;;;;5012376;28;19910;-62
2022/03/08 06:02:34;;;;;;;;;;;;;;;;;;5012053;28;19995;-59
2022/03/08 06:05:00;;;;;;;;;;;;;;;;;;5012725;28;19909;-60
2022/03/08 06:07:27;;;;;;;;;;;;;;;;;;5012000;28;19910;-66
2022/03/08 06:09:53;;;;;;;;;;;;;;;;;;5011902;28;19983;-59
2022/03/08 06:12:20;;;;;;;;;;;;;;;;;;5011249;28;20008;-64
2022/03/08 06:14:46;;;;;;;;;;;;;;;;;;5011460;28;19910;-56
2022/03/08 06:17:13;;;;;;;;;;;;;;;;;;4994150;28;19981;-63
2022/03/08 06:19:39;;;;;;;;;;;;;;;;;;4997438;28;19909;-60
2022/03/08 06:22:06;;;;;;;;;;;;;;;;;;5014906;28;19996;-64
2022/03/08 06:24:32;;;;;;;;;;;;;;;;;;5014916;28;19913;-64
2022/03/08 06:26:59;;;;;;;;;;;;;;;;;;5015539;28;19916;-60
2022/03/08 06:29:25;;;;;;;;;;;;;;;;;;5015045;28;19967;-61
2022/03/08 06:31:51;;;;;;;;;;;;;;;;;;5015090;28;19910;-64
2022/03/08 06:34:18;;;;;;;;;;;;;;;;;;5014585;28;19910;-63
2022/03/08 06:36:44;;;;;;;;;;;;;;;;;;5014562;28;19925;-64
2022/03/08 06:39:11;;;;;;;;;;;;;;;;;;5014849;28;19971;-64
2022/03/08 06:41:37;;;;;;;;;;;;;;;;;;5015041;28;20283;-62
2022/03/08 06:44:04;;;;;;;;;;;;;;;;;;5014379;28;19910;-47
2022/03/08 06:46:30;;;;;;;;;;;;;;;;;;5014573;28;19960;-60
2022/03/08 06:48:57;;;;;;;;;;;;;;;;;;5014769;28;20356;-63
2022/03/08 06:51:24;;;;;;;;;;;;;;;;;;5014316;28;19972;-60
2022/03/08 06:53:50;;;;;;;;;;;;;;;;;;5014720;28;19906;-60
2022/03/08 06:56:16;;;;;;;;;;;;;;;;;;5014589;28;19949;-58
2022/03/08 06:58:43;;;;;;;;;;;;;;;;;;4996980;28;19948;-59
2022/03/08 07:01:09;;;;;;;;;;;;;;;;;;5014551;28;19909;-62
2022/03/08 07:03:36;;;;;;;;;;;;;;;;;;5014731;28;20037;-57
2022/03/08 07:06:05;;;;;;;;;;;;;;;;;;5014382;28;20291;-64
2022/03/08 07:08:31;;;;;;;;;;;;;;;;;;5014595;28;20010;-61
2022/03/08 07:10:58;;;;;;;;;;;;;;;;;;5014575;28;20060;-63
2022/03/08 07:13:24;;;;;;;;;;;;;;;;;;5014427;28;19910;-63
2022/03/08 07:15:51;;;;;;;;;;;;;;;;;;5014016;28;19979;-64
2022/03/08 07:18:17;;;;;;;;;;;;;;;;;;4996733;28;20249;-63
2022/03/08 07:20:44;;;;;;;;;;;;;;;;;;5014555;28;19995;-62
2022/03/08 07:23:10;;;;;;;;;;;;;;;;;;5014081;28;19927;-63
2022/03/08 07:25:37;;;;;;;;;;;;;;;;;;5014564;28;19914;-62
2022/03/08 07:28:04;;;;;;;;;;;;;;;;;;5014087;28;20020;-50
2022/03/08 07:30:30;;;;;;;;;;;;;;;;;;5014172;28;20004;-59
2022/03/08 07:32:57;;;;;;;;;;;;;;;;;;5014538;28;19936;-59
2022/03/08 07:35:24;;;;;;;;;;;;;;;;;;5013886;28;20375;-60
2022/03/08 07:37:50;;;;;;;;;;;;;;;;;;5014336;28;19925;-64
2022/03/08 07:40:17;;;;;;;;;;;;;;;;;;5013800;28;20052;-64
2022/03/08 07:42:43;;;;;;;;;;;;;;;;;;5013951;28;19910;-64
2022/03/08 07:45:10;;;;;;;;;;;;;;;;;;5013848;28;19985;-62
2022/03/08 07:47:36;;;;;;;;;;;;;;;;;;5014111;28;19910;-60
2022/03/08 07:50:03;;;;;;;;;;;;;;;;;;5014048;28;19964;-60
2022/03/08 07:52:30;;;;;;;;;;;;;;;;;;5014202;28;20000;-63
2022/03/08 07:54:56;;;;;;;;;;;;;;;;;;5013619;28;19921;-60
2022/03/08 07:57:22;;;;;;;;;;;;;;;;;;4995932;28;19932;-62
2022/03/08 07:59:49;;;;;;;;;;;;;;;;;;5014113;28;20002;-60
2022/03/08 08:02:15;;;;;;;;;;;;;;;;;;5013361;28;19909;-62
2022/03/08 08:04:42;;;;;;;;;;;;;;;;;;5013773;28;19941;-50
2022/03/08 08:07:09;;;;;;;;;;;;;;;;;;5014250;28;19928;-63
2022/03/08 08:09:37;;;;;;;;;;;;;;;;;;5013647;28;19975;-61
2022/03/08 08:12:03;;;;;;;;;;;;;;;;;;5005255;28;19961;-50
2022/03/08 08:14:30;;;;;;;;;;;;;;;;;;5009177;28;19996;-46
2022/03/08 08:16:57;;;;;;;;;;;;;;;;;;5009861;28;20000;-51
2022/03/08 08:19:44;;;;;;;;;;;;;;;;;;5011264;28;19952;-57
2022/03/08 08:22:10;;;;;;;;;;;;;;;;;;5010594;28;19956;-62
2022/03/08 08:24:36;;;;;;;;;;;;;;;;;;5009922;28;19909;-54
2022/03/08 08:27:03;;;;;;;;;;;;;;;;;;5009736;28;19910;-45
2022/03/08 08:29:29;;;;;;;;;;;;;;;;;;5009370;28;19968;-44
2022/03/08 08:31:56;;;;;;;;;;;;;;;;;;5010500;28;20271;-54
2022/03/08 08:34:22;;;;;;;;;;;;;;;;;;5010210;28;20267;-43
2022/03/08 08:36:49;;;;;;;;;;;;;;;;;;5009187;28;19918;-58
2022/03/08 08:39:16;;;;;;;;;;;;;;;;;;5009594;28;19956;-49
2022/03/08 08:41:42;;;;;;;;;;;;;;;;;;5008329;28;20004;-46
2022/03/08 08:44:09;;;;;;;;;;;;;;;;;;5007259;28;20398;-63
2022/03/08 08:46:35;;;;;;;;;;;;;;;;;;5003523;28;19956;-48
2022/03/08 08:49:02;;;;;;;;;;;;;;;;;;5005795;28;19982;-47
2022/03/08 08:51:29;;;;;;;;;;;;;;;;;;5009898;28;19910;-51
2022/03/08 08:53:55;;;;;;;;;;;;;;;;;;5006219;28;20352;-46
2022/03/08 08:56:22;;;;;;;;;;;;;;;;;;5003653;28;20010;-46
2022/03/08 08:58:48;;;;;;;;;;;;;;;;;;5010376;28;19910;-53
2022/03/08 09:01:15;;;;;;;;;;;;;;;;;;5007536;28;19910;-53
2022/03/08 09:03:41;;;;;;;;;;;;;;;;;;5007591;28;20432;-58
2022/03/08 09:06:08;;;;;;;;;;;;;;;;;;5005941;28;19917;-59
2022/03/08 09:08:34;;;;;;;;;;;;;;;;;;5007752;28;19917;-65
2022/03/08 09:11:01;;;;;;;;;;;;;;;;;;5007365;28;19914;-49
2022/03/08 09:13:27;;;;;;;;;;;;;;;;;;5009329;28;19948;-58
2022/03/08 09:15:54;;;;;;;;;;;;;;;;;;5006356;28;20356;-67
2022/03/08 09:18:20;;;;;;;;;;;;;;;;;;4993311;28;19910;-66
2022/03/08 09:20:47;;;;;;;;;;;;;;;;;;5009182;28;20276;-65
2022/03/08 09:23:13;;;;;;;;;;;;;;;;;;5009254;28;19913;-64
2022/03/08 09:25:40;;;;;;;;;;;;;;;;;;5006895;28;20045;-64
2022/03/08 09:28:06;;;;;;;;;;;;;;;;;;5009461;28;19909;-63
2022/03/08 09:30:33;;;;;;;;;;;;;;;;;;5009580;28;19914;-55
2022/03/08 09:32:59;;;;;;;;;;;;;;;;;;5008867;28;19961;-60
2022/03/08 09:35:26;;;;;;;;;;;;;;;;;;5006007;28;19910;-63
2022/03/08 09:37:52;;;;;;;;;;;;;;;;;;4991626;28;19929;-54
2022/03/08 09:40:19;;;;;;;;;;;;;;;;;;5009609;28;19909;-51
2022/03/08 09:42:45;;;;;;;;;;;;;;;;;;5009665;28;19933;-55
2022/03/08 09:45:12;;;;;;;;;;;;;;;;;;5006243;28;19996;-62
2022/03/08 09:47:38;;;;;;;;;;;;;;;;;;5009057;28;20228;-54
2022/03/08 09:50:05;;;;;;;;;;;;;;;;;;5008884;28;19917;-54
2022/03/08 09:52:31;;;;;;;;;;;;;;;;;;5010060;28;19910;-66
2022/03/08 09:54:58;;;;;;;;;;;;;;;;;;5010136;28;20261;-50
2022/03/08 09:57:25;;;;;;;;;;;;;;;;;;5012038;28;19931;-61
2022/03/08 09:59:52;;;;;;;;;;;;;;;;;;5012500;28;19910;-60
2022/03/08 10:02:23;;;;;;;;;;;;;;;;;;5010515;28;20342;-58
2022/03/08 10:05:00;;;;;;;;;;;;;;;;;;5010733;28;19940;-53
2022/03/08 10:07:26;;;;;;;;;;;;;;;;;;5012389;28;19917;-67
2022/03/08 10:09:53;;;;;;;;;;;;;;;;;;5013068;28;20036;-58
2022/03/08 10:12:19;;;;;;;;;;;;;;;;;;5012875;28;20386;-61
2022/03/08 10:14:46;;;;;;;;;;;;;;;;;;5009903;28;20403;-56
2022/03/08 10:17:12;;;;;;;;;;;;;;;;;;5010752;28;19917;-53
2022/03/08 10:19:38;;;;;;;;;;;;;;;;;;5012099;28;20330;-45
2022/03/08 10:22:05;;;;;;;;;;;;;;;;;;5012602;28;19932;-42
2022/03/08 10:24:32;;;;;;;;;;;;;;;;;;5011655;28;19910;-45
2022/03/08 10:26:58;;;;;;;;;;;;;;;;;;4991057;28;20385;-43
2022/03/08 10:29:25;;;;;;;;;;;;;;;;;;5012064;28;19918;-49
2022/03/08 10:31:51;;;;;;;;;;;;;;;;;;5011527;28;20003;-49
2022/03/08 10:34:18;;;;;;;;;;;;;;;;;;5012275;28;19921;-46
2022/03/08 10:36:44;;;;;;;;;;;;;;;;;;5008086;28;19925;-50
2022/03/08 10:39:11;;;;;;;;;;;;;;;;;;5006878;28;19932;-48
2022/03/08 10:41:37;;;;;;;;;;;;;;;;;;5005247;28;19909;-49
2022/03/08 10:44:04;;;;;;;;;;;;;;;;;;5010303;28;19916;-53
2022/03/08 10:46:30;;;;;;;;;;;;;;;;;;5008318;28;19972;-51
2022/03/08 10:48:57;;;;;;;;;;;;;;;;;;5010205;28;20452;-50
2022/03/08 10:51:23;;;;;;;;;;;;;;;;;;5010070;28;20027;-52
2022/03/08 10:53:50;;;;;;;;;;;;;;;;;;5011019;28;19917;-50
2022/03/08 10:56:16;;;;;;;;;;;;;;;;;;5007579;28;20283;-42
2022/03/08 10:58:43;;;;;;;;;;;;;;;;;;5010527;28;19913;-48
2022/03/08 11:01:09;;;;;;;;;;;;;;;;;;5010763;28;19980;-50
2022/03/08 11:03:36;;;;;;;;;;;;;;;;;;5010841;28;19965;-50
2022/03/08 11:06:05;;;;;;;;;;;;;;;;;;5007175;28;19921;-48
2022/03/08 11:08:32;;;;;;;;;;;;;;;;;;5010652;28;19913;-46
2022/03/08 11:10:58;;;;;;;;;;;;;;;;;;5011074;28;19922;-57
2022/03/08 11:13:25;;;;;;;;;;;;;;;;;;5010663;28;19910;-52
2022/03/08 11:15:51;;;;;;;;;;;;;;;;;;5007989;28;19920;-50
2022/03/08 11:18:18;;;;;;;;;;;;;;;;;;5010839;28;19938;-51
2022/03/08 11:20:44;;;;;;;;;;;;;;;;;;5011058;28;20369;-46
2022/03/08 11:23:11;;;;;;;;;;;;;;;;;;5010382;28;19914;-46
2022/03/08 11:25:37;;;;;;;;;;;;;;;;;;5006792;28;19948;-44
2022/03/08 11:28:04;;;;;;;;;;;;;;;;;;5010589;28;19918;-50
2022/03/08 11:30:30;;;;;;;;;;;;;;;;;;5010761;28;19914;-49
2022/03/08 11:32:57;;;;;;;;;;;;;;;;;;5011240;28;20356;-45
2022/03/08 11:35:23;;;;;;;;;;;;;;;;;;5005959;28;19910;-44
2022/03/08 11:37:50;;;;;;;;;;;;;;;;;;5009499;28;19922;-50
2022/03/08 11:40:16;;;;;;;;;;;;;;;;;;5010591;28;19956;-55
2022/03/08 11:42:45;;;;;;;;;;;;;;;;;;5010863;28;19913;-49
2022/03/08 11:45:12;;;;;;;;;;;;;;;;;;5007139;28;19910;-60
2022/03/08 11:47:38;;;;;;;;;;;;;;;;;;5010772;28;19961;-64
2022/03/08 11:50:05;;;;;;;;;;;;;;;;;;5013774;28;20304;-61
2022/03/08 11:52:31;;;;;;;;;;;;;;;;;;5009974;28;19967;-60
2022/03/08 11:54:58;;;;;;;;;;;;;;;;;;5013201;28;19916;-61
2022/03/08 11:57:25;;;;;;;;;;;;;;;;;;5013219;28;19997;-61
2022/03/08 11:59:51;;;;;;;;;;;;;;;;;;5013602;28;19914;-52
2022/03/08 12:02:17;;;;;;;;;;;;;;;;;;5013422;28;19909;-56
2022/03/08 12:04:45;;;;;;;;;;;;;;;;;;5013062;28;19914;-62
2022/03/08 12:07:11;;;;;;;;;;;;;;;;;;5012747;28;19914;-50
2022/03/08 12:09:38;;;;;;;;;;;;;;;;;;5012246;28;20012;-61
2022/03/08 12:12:08;;;;;;;;;;;;;;;;;;5012395;28;21434;-60
2022/03/08 12:14:34;;;;;;;;;;;;;;;;;;5012547;28;19914;-58
2022/03/08 12:17:01;;;;;;;;;;;;;;;;;;5011947;28;20344;-44
2022/03/08 12:19:27;;;;;;;;;;;;;;;;;;5012916;28;20265;-60
2022/03/08 12:21:54;;;;;;;;;;;;;;;;;;5012016;28;19935;-61
2022/03/08 12:24:21;;;;;;;;;;;;;;;;;;4995209;28;19913;-59
2022/03/08 12:26:47;;;;;;;;;;;;;;;;;;5012757;28;19932;-61
2022/03/08 12:29:15;;;;;;;;;;;;;;;;;;5012678;28;19936;-62
2022/03/08 12:31:41;;;;;;;;;;;;;;;;;;5012974;28;20371;-62
2022/03/08 12:34:08;;;;;;;;;;;;;;;;;;5013065;28;20439;-60
2022/03/08 12:36:34;;;;;;;;;;;;;;;;;;5012499;28;20297;-59
2022/03/08 12:39:00;;;;;;;;;;;;;;;;;;5012975;28;20405;-61
2022/03/08 12:41:27;;;;;;;;;;;;;;;;;;5012667;28;19937;-60
2022/03/08 12:43:53;;;;;;;;;;;;;;;;;;5012965;28;19947;-59
2022/03/08 12:46:20;;;;;;;;;;;;;;;;;;5012874;28;19978;-56
2022/03/08 12:48:46;;;;;;;;;;;;;;;;;;5012623;28;19940;-61
2022/03/08 12:51:13;;;;;;;;;;;;;;;;;;5012538;28;19913;-63
2022/03/08 12:53:39;;;;;;;;;;;;;;;;;;5013155;28;19921;-57
2022/03/08 12:56:06;;;;;;;;;;;;;;;;;;5013614;28;19910;-60
2022/03/08 12:58:32;;;;;;;;;;;;;;;;;;5013406;28;19910;-62
2022/03/08 13:00:58;;;;;;;;;;;;;;;;;;5008227;28;20364;-60
2022/03/08 13:03:25;;;;;;;;;;;;;;;;;;5007449;28;20268;-56
2022/03/08 13:05:51;;;;;;;;;;;;;;;;;;5009886;28;19910;-59
2022/03/08 13:08:18;;;;;;;;;;;;;;;;;;5009491;28;19909;-60
2022/03/08 13:10:44;;;;;;;;;;;;;;;;;;5009294;28;19956;-54
2022/03/08 13:13:12;;;;;;;;;;;;;;;;;;5009572;28;19956;-59
2022/03/08 13:15:38;;;;;;;;;;;;;;;;;;5009903;28;19960;-54
2022/03/08 13:18:05;;;;;;;;;;;;;;;;;;5008430;28;20392;-60
2022/03/08 13:20:31;;;;;;;;;;;;;;;;;;5010029;28;19992;-59
2022/03/08 13:22:58;;;;;;;;;;;;;;;;;;5009737;28;19910;-59
2022/03/08 13:25:24;;;;;;;;;;;;;;;;;;5009945;28;19910;-62
2022/03/08 13:27:51;;;;;;;;;;;;;;;;;;5010861;28;19913;-62
2022/03/08 13:30:17;;;;;;;;;;;;;;;;;;5013613;28;20407;-58
2022/03/08 13:32:44;;;;;;;;;;;;;;;;;;5014285;28;19909;-55
2022/03/08 13:35:10;;;;;;;;;;;;;;;;;;5013616;28;19960;-62
2022/03/08 13:37:37;;;;;;;;;;;;;;;;;;5012998;28;19921;-62
2022/03/08 13:40:03;;;;;;;;;;;;;;;;;;5011097;28;19909;-50
2022/03/08 13:42:30;;;;;;;;;;;;;;;;;;5013860;28;19917;-62
2022/03/08 13:44:56;;;;;;;;;;;;;;;;;;5013297;28;19956;-59
2022/03/08 13:47:22;;;;;;;;;;;;;;;;;;5013900;28;19918;-58
2022/03/08 13:49:49;;;;;;;;;;;;;;;;;;5011370;28;20491;-60
2022/03/08 13:52:16;;;;;;;;;;;;;;;;;;5010819;28;20336;-58
2022/03/08 13:54:43;;;;;;;;;;;;;;;;;;5012726;28;19909;-60
2022/03/08 13:57:11;;;;;;;;;;;;;;;;;;5013341;28;20348;-54
2022/03/08 13:59:38;;;;;;;;;;;;;;;;;;5011483;28;19916;-59
2022/03/08 14:02:04;;;;;;;;;;;;;;;;;;5013479;28;19909;-59
2022/03/08 14:04:31;;;;;;;;;;;;;;;;;;5012738;28;19910;-56
2022/03/08 14:06:57;;;;;;;;;;;;;;;;;;5013432;28;20395;-59
2022/03/08 14:09:24;;;;;;;;;;;;;;;;;;5010731;28;20231;-58
2022/03/08 14:11:50;;;;;;;;;;;;;;;;;;5012625;28;19914;-59
2022/03/08 14:14:17;;;;;;;;;;;;;;;;;;5013015;28;20284;-60
2022/03/08 14:16:43;;;;;;;;;;;;;;;;;;5013371;28;19975;-61
2022/03/08 14:19:09;;;;;;;;;;;;;;;;;;5011302;28;20351;-59
2022/03/08 14:21:39;;;;;;;;;;;;;;;;;;5008597;28;20239;-58
2022/03/08 14:24:05;;;;;;;;;;;;;;;;;;5011719;28;19917;-60
2022/03/08 14:26:32;;;;;;;;;;;;;;;;;;5012982;28;19975;-60
2022/03/08 14:29:01;;;;;;;;;;;;;;;;;;5012760;28;19913;-61
2022/03/08 14:31:28;;;;;;;;;;;;;;;;;;5012088;28;19952;-49
2022/03/08 14:33:54;;;;;;;;;;;;;;;;;;5012622;28;19909;-59
2022/03/08 14:36:21;;;;;;;;;;;;;;;;;;5012814;28;19975;-59
2022/03/08 14:38:47;;;;;;;;;;;;;;;;;;5011932;28;19910;-55
2022/03/08 14:41:14;;;;;;;;;;;;;;;;;;5010609;28;19910;-48
2022/03/08 14:43:40;;;;;;;;;;;;;;;;;;5012993;28;19925;-60
2022/03/08 14:46:06;;;;;;;;;;;;;;;;;;5012611;28;19990;-56
2022/03/08 14:48:33;;;;;;;;;;;;;;;;;;5012708;28;20280;-54
2022/03/08 14:50:59;;;;;;;;;;;;;;;;;;5010021;28;20353;-50
2022/03/08 14:53:26;;;;;;;;;;;;;;;;;;5012492;28;19913;-55
2022/03/08 14:55:52;;;;;;;;;;;;;;;;;;4994520;28;19909;-53
2022/03/08 14:58:19;;;;;;;;;;;;;;;;;;5012575;28;19913;-61
2022/03/08 15:00:45;;;;;;;;;;;;;;;;;;5009348;28;19909;-62
2022/03/08 15:03:12;;;;;;;;;;;;;;;;;;5012027;28;19910;-60
2022/03/08 15:05:41;;;;;;;;;;;;;;;;;;5012417;28;19914;-59
2022/03/08 15:08:07;;;;;;;;;;;;;;;;;;5011562;28;19916;-53
2022/03/08 15:10:34;;;;;;;;;;;;;;;;;;5009517;28;19949;-58
2022/03/08 15:13:00;;;;;;;;;;;;;;;;;;5012010;28;19910;-58
2022/03/08 15:15:27;;;;;;;;;;;;;;;;;;5012560;28;19917;-59
2022/03/08 15:17:53;;;;;;;;;;;;;;;;;;5011441;28;19968;-52
2022/03/08 15:20:20;;;;;;;;;;;;;;;;;;5008413;28;19913;-60
2022/03/08 15:22:46;;;;;;;;;;;;;;;;;;5011245;28;19918;-61
2022/03/08 15:25:13;;;;;;;;;;;;;;;;;;5011139;28;19909;-55
2022/03/08 15:27:39;;;;;;;;;;;;;;;;;;5010255;28;20004;-51
2022/03/08 15:30:06;;;;;;;;;;;;;;;;;;5002111;28;19917;-52
2022/03/08 15:32:32;;;;;;;;;;;;;;;;;;5012279;28;20403;-55
2022/03/08 15:34:59;;;;;;;;;;;;;;;;;;5010515;28;20307;-56
2022/03/08 15:37:26;;;;;;;;;;;;;;;;;;5011238;28;19972;-54
2022/03/08 15:39:53;;;;;;;;;;;;;;;;;;5008668;28;20648;-51
2022/03/08 15:42:19;;;;;;;;;;;;;;;;;;5011153;28;20027;-50
2022/03/08 15:44:46;;;;;;;;;;;;;;;;;;5010040;28;19960;-47
2022/03/08 15:47:15;;;;;;;;;;;;;;;;;;5011358;28;20356;-45
2022/03/08 15:49:41;;;;;;;;;;;;;;;;;;5007882;28;19925;-44
2022/03/08 15:52:08;;;;;;;;;;;;;;;;;;5010542;28;19910;-51
2022/03/08 15:54:34;;;;;;;;;;;;;;;;;;5010749;28;20276;-47
2022/03/08 15:57:01;;;;;;;;;;;;;;;;;;5010678;28;19920;-48
2022/03/08 15:59:27;;;;;;;;;;;;;;;;;;5009098;28;19917;-50
2022/03/08 16:01:54;;;;;;;;;;;;;;;;;;5009655;28;20284;-46
2022/03/08 16:04:20;;;;;;;;;;;;;;;;;;5010794;28;20051;-51
2022/03/08 16:06:47;;;;;;;;;;;;;;;;;;5011176;28;19924;-47
2022/03/08 16:09:13;;;;;;;;;;;;;;;;;;5010798;28;19920;-47
2022/03/08 16:11:42;;;;;;;;;;;;;;;;;;5007926;28;19952;-51
2022/03/08 16:14:09;;;;;;;;;;;;;;;;;;4992991;28;20261;-48
2022/03/08 16:19:20;;;;;;;;;;;;;;;;;;5009907;28;19924;-48
2022/03/08 16:21:47;;;;;;;;;;;;;;;;;;5008826;28;19910;-52
2022/03/08 16:24:13;;;;;;;;;;;;;;;;;;5012086;28;19909;-57
2022/03/08 16:26:40;;;;;;;;;;;;;;;;;;5013670;28;19914;-58
2022/03/08 16:29:06;;;;;;;;;;;;;;;;;;5013943;28;20004;-57
2022/03/08 16:31:33;;;;;;;;;;;;;;;;;;5013811;28;19964;-53
2022/03/08 16:33:59;;;;;;;;;;;;;;;;;;5013751;28;20000;-54
2022/03/08 16:36:26;;;;;;;;;;;;;;;;;;5013498;28;19913;-61
2022/03/08 16:38:52;;;;;;;;;;;;;;;;;;5013905;28;19920;-61
2022/03/08 16:41:18;;;;;;;;;;;;;;;;;;5013462;28;19921;-58
2022/03/08 16:43:45;;;;;;;;;;;;;;;;;;5013465;28;20416;-61